createdAt,value
2023-02-14T00:00:37.626Z,75.42
2023-02-14T00:01:37.605Z,75.13
2023-02-14T00:02:37.639Z,75.42
2023-02-14T00:03:37.568Z,74.76
2023-02-14T00:04:37.621Z,75.23
2023-02-14T00:05:37.530Z,74.95
2023-02-14T00:06:37.515Z,74.85
2023-02-14T00:07:37.487Z,74.85
2023-02-14T00:08:37.468Z,75.32
2023-02-14T00:09:37.445Z,75.42
2023-02-14T00:10:37.429Z,75.32
2023-02-14T00:11:37.410Z,75.23
2023-02-14T00:12:37.401Z,75.42
2023-02-14T00:13:37.369Z,75.23
2023-02-14T00:14:37.356Z,75.42
2023-02-14T00:15:37.335Z,75.42
2023-02-14T00:16:37.310Z,75.13
2023-02-14T00:17:37.287Z,75.60
2023-02-14T00:18:37.272Z,75.42
2023-02-14T00:19:37.251Z,75.60
2023-02-14T00:20:37.232Z,75.70
2023-02-14T00:21:37.207Z,75.79
2023-02-14T00:22:37.192Z,75.70
2023-02-14T00:23:37.174Z,75.79
2023-02-14T00:24:37.152Z,75.70
2023-02-14T00:25:37.130Z,75.42
2023-02-14T00:26:37.110Z,75.89
2023-02-14T00:27:37.104Z,75.79
2023-02-14T00:28:37.071Z,75.51
2023-02-14T00:29:37.049Z,76.36
2023-02-14T00:30:37.142Z,75.89
2023-02-14T00:31:37.221Z,75.98
2023-02-14T00:32:36.987Z,75.98
2023-02-14T00:33:36.979Z,76.07
2023-02-14T00:34:36.951Z,75.79
2023-02-14T00:35:36.931Z,75.60
2023-02-14T00:36:36.912Z,75.60
2023-02-14T00:37:36.896Z,75.98
2023-02-14T00:38:36.869Z,75.51
2023-02-14T00:39:36.870Z,75.60
2023-02-14T00:40:36.828Z,75.79
2023-02-14T00:41:36.810Z,75.60
2023-02-14T00:42:36.800Z,75.89
2023-02-14T00:43:36.767Z,75.98
2023-02-14T00:44:36.753Z,76.07
2023-02-14T00:45:36.762Z,76.07
2023-02-14T00:46:36.708Z,76.26
2023-02-14T00:47:36.702Z,76.55
2023-02-14T00:48:36.669Z,76.45
2023-02-14T00:49:36.661Z,76.45
2023-02-14T00:50:36.630Z,76.55
2023-02-14T00:51:36.611Z,76.45
2023-02-14T00:52:36.590Z,76.45
2023-02-14T00:53:36.572Z,76.64
2023-02-14T00:54:36.551Z,76.64
2023-02-14T00:55:36.535Z,76.45
2023-02-14T00:56:36.515Z,76.74
2023-02-14T00:57:36.491Z,76.83
2023-02-14T00:58:36.471Z,76.74
2023-02-14T00:59:36.457Z,76.83
2023-02-14T01:00:36.496Z,76.74
2023-02-14T01:01:36.412Z,76.74
2023-02-14T01:02:36.451Z,76.64
2023-02-14T01:03:36.393Z,76.64
2023-02-14T01:04:36.350Z,76.74
2023-02-14T01:05:36.345Z,76.83
2023-02-14T01:06:36.330Z,76.55
2023-02-14T01:07:36.307Z,76.74
2023-02-14T01:08:36.278Z,76.45
2023-02-14T01:09:36.250Z,76.64
2023-02-14T01:10:36.228Z,76.74
2023-02-14T01:11:36.208Z,76.45
2023-02-14T01:12:36.188Z,76.55
2023-02-14T01:13:36.172Z,76.64
2023-02-14T01:14:36.155Z,76.55
2023-02-14T01:15:36.137Z,76.79
2023-02-14T01:16:36.155Z,76.79
2023-02-14T01:17:36.106Z,76.83
2023-02-14T01:18:36.540Z,76.83
2023-02-14T01:19:36.062Z,76.79
2023-02-14T01:20:36.028Z,77.12
2023-02-14T01:21:36.061Z,77.21
2023-02-14T01:22:36.008Z,77.21
2023-02-14T01:23:35.996Z,77.21
2023-02-14T01:24:35.951Z,76.83
2023-02-14T01:25:35.943Z,76.83
2023-02-14T01:26:35.908Z,76.83
2023-02-14T01:27:35.893Z,76.83
2023-02-14T01:28:35.868Z,76.55
2023-02-14T01:29:35.858Z,76.98
2023-02-14T01:30:35.936Z,77.21
2023-02-14T01:31:36.002Z,77.21
2023-02-14T01:32:35.795Z,77.21
2023-02-14T01:33:35.802Z,77.21
2023-02-14T01:34:35.751Z,77.21
2023-02-14T01:35:35.741Z,77.21
2023-02-14T01:36:35.710Z,77.21
2023-02-14T01:37:35.697Z,76.74
2023-02-14T01:38:35.673Z,76.64
2023-02-14T01:39:35.677Z,76.74
2023-02-14T01:40:35.636Z,76.74
2023-02-14T01:41:35.616Z,76.83
2023-02-14T01:42:35.590Z,76.74
2023-02-14T01:43:35.576Z,76.83
2023-02-14T01:44:35.551Z,76.83
2023-02-14T01:45:35.544Z,76.55
2023-02-14T01:46:35.515Z,76.89
2023-02-14T01:47:35.521Z,77.45
2023-02-14T01:48:35.478Z,76.98
2023-02-14T01:49:35.471Z,77.02
2023-02-14T01:50:35.440Z,77.36
2023-02-14T01:51:35.419Z,77.36
2023-02-14T01:52:35.407Z,77.45
2023-02-14T01:53:35.377Z,77.08
2023-02-14T01:54:35.387Z,77.26
2023-02-14T01:55:35.333Z,77.17
2023-02-14T01:56:35.351Z,76.98
2023-02-14T01:57:35.297Z,77.45
2023-02-14T01:58:35.280Z,77.08
2023-02-14T01:59:35.258Z,77.26
2023-02-14T02:00:35.241Z,77.26
2023-02-14T02:01:35.257Z,77.26
2023-02-14T02:02:35.251Z,77.26
2023-02-14T02:03:35.185Z,77.26
2023-02-14T02:04:35.152Z,77.26
2023-02-14T02:05:35.138Z,77.17
2023-02-14T02:06:35.120Z,76.98
2023-02-14T02:07:35.103Z,77.36
2023-02-14T02:08:35.075Z,76.93
2023-02-14T02:09:35.059Z,77.40
2023-02-14T02:10:35.035Z,77.21
2023-02-14T02:11:35.017Z,77.12
2023-02-14T02:12:34.994Z,77.31
2023-02-14T02:13:34.982Z,77.12
2023-02-14T02:14:34.951Z,77.40
2023-02-14T02:15:34.934Z,77.12
2023-02-14T02:16:34.962Z,76.93
2023-02-14T02:17:34.895Z,77.40
2023-02-14T02:18:34.873Z,77.21
2023-02-14T02:19:34.860Z,77.40
2023-02-14T02:20:34.854Z,77.02
2023-02-14T02:21:34.812Z,77.21
2023-02-14T02:22:34.813Z,77.31
2023-02-14T02:23:34.801Z,77.02
2023-02-14T02:24:34.808Z,77.21
2023-02-14T02:25:34.731Z,77.02
2023-02-14T02:26:34.716Z,76.97
2023-02-14T02:27:34.700Z,76.87
2023-02-14T02:28:34.701Z,76.68
2023-02-14T02:29:34.653Z,76.59
2023-02-14T02:30:34.837Z,76.68
2023-02-14T02:31:34.761Z,76.59
2023-02-14T02:32:34.595Z,76.68
2023-02-14T02:33:34.574Z,76.78
2023-02-14T02:34:34.555Z,76.78
2023-02-14T02:35:34.572Z,76.87
2023-02-14T02:36:34.513Z,77.44
2023-02-14T02:37:34.489Z,77.25
2023-02-14T02:38:34.489Z,77.34
2023-02-14T02:39:34.500Z,77.31
2023-02-14T02:40:34.432Z,77.12
2023-02-14T02:41:34.430Z,77.40
2023-02-14T02:42:34.396Z,77.21
2023-02-14T02:43:34.382Z,77.02
2023-02-14T02:44:34.357Z,77.69
2023-02-14T02:45:34.335Z,77.69
2023-02-14T02:46:34.314Z,77.50
2023-02-14T02:47:34.303Z,77.50
2023-02-14T02:48:34.271Z,77.69
2023-02-14T02:49:34.257Z,77.87
2023-02-14T02:50:34.235Z,77.78
2023-02-14T02:51:34.213Z,77.69
2023-02-14T02:52:34.196Z,77.69
2023-02-14T02:53:34.183Z,77.40
2023-02-14T02:54:34.152Z,78.06
2023-02-14T02:55:34.170Z,78.06
2023-02-14T02:56:34.117Z,77.97
2023-02-14T02:57:34.091Z,77.97
2023-02-14T02:58:34.072Z,78.16
2023-02-14T02:59:34.055Z,77.87
2023-02-14T03:00:34.033Z,78.06
2023-02-14T03:01:34.111Z,77.97
2023-02-14T03:02:34.003Z,77.69
2023-02-14T03:03:33.976Z,77.78
2023-02-14T03:04:33.970Z,77.69
2023-02-14T03:05:33.932Z,77.69
2023-02-14T03:06:33.978Z,77.87
2023-02-14T03:07:33.892Z,77.87
2023-02-14T03:08:33.896Z,77.69
2023-02-14T03:09:33.856Z,76.93
2023-02-14T03:10:33.832Z,77.21
2023-02-14T03:11:33.825Z,77.31
2023-02-14T03:12:33.790Z,77.78
2023-02-14T03:13:33.775Z,77.59
2023-02-14T03:14:33.759Z,77.78
2023-02-14T03:15:33.780Z,77.78
2023-02-14T03:16:33.714Z,77.59
2023-02-14T03:17:33.697Z,77.50
2023-02-14T03:18:33.674Z,77.31
2023-02-14T03:19:33.657Z,77.40
2023-02-14T03:20:33.675Z,77.69
2023-02-14T03:21:33.614Z,77.59
2023-02-14T03:22:33.601Z,77.69
2023-02-14T03:23:33.576Z,77.40
2023-02-14T03:24:33.555Z,77.40
2023-02-14T03:25:33.539Z,77.40
2023-02-14T03:26:33.513Z,77.40
2023-02-14T03:27:33.510Z,77.59
2023-02-14T03:28:33.474Z,77.40
2023-02-14T03:29:33.461Z,77.59
2023-02-14T03:30:33.480Z,77.87
2023-02-14T03:31:33.543Z,77.78
2023-02-14T03:32:33.392Z,77.50
2023-02-14T03:33:33.376Z,77.31
2023-02-14T03:34:33.357Z,77.69
2023-02-14T03:35:33.331Z,77.87
2023-02-14T03:36:33.316Z,77.69
2023-02-14T03:37:33.301Z,77.87
2023-02-14T03:38:33.269Z,77.69
2023-02-14T03:39:33.262Z,77.59
2023-02-14T03:40:33.520Z,77.69
2023-02-14T03:41:33.207Z,77.78
2023-02-14T03:42:33.218Z,77.87
2023-02-14T03:43:33.180Z,77.87
2023-02-14T03:44:33.162Z,77.97
2023-02-14T03:45:33.234Z,78.16
2023-02-14T03:46:33.162Z,77.97
2023-02-14T03:47:33.090Z,78.53
2023-02-14T03:48:33.071Z,78.53
2023-02-14T03:49:33.052Z,78.72
2023-02-14T03:50:33.032Z,78.63
2023-02-14T03:51:33.011Z,77.97
2023-02-14T03:52:32.997Z,78.53
2023-02-14T03:53:32.969Z,78.72
2023-02-14T03:54:32.947Z,78.72
2023-02-14T03:55:32.926Z,78.72
2023-02-14T03:56:32.905Z,78.44
2023-02-14T03:57:32.901Z,78.53
2023-02-14T03:58:32.869Z,78.63
2023-02-14T03:59:32.854Z,78.53
2023-02-14T04:00:32.846Z,78.81
2023-02-14T04:01:32.853Z,78.63
2023-02-14T04:02:32.781Z,78.53
2023-02-14T04:03:32.845Z,78.53
2023-02-14T04:04:32.749Z,78.25
2023-02-14T04:05:32.727Z,78.34
2023-02-14T04:06:32.728Z,78.34
2023-02-14T04:07:32.683Z,78.44
2023-02-14T04:08:32.728Z,78.25
2023-02-14T04:09:32.645Z,78.53
2023-02-14T04:10:32.621Z,78.34
2023-02-14T04:11:32.602Z,78.34
2023-02-14T04:12:38.062Z,78.21
2023-02-14T04:13:32.572Z,78.40
2023-02-14T04:14:32.568Z,78.31
2023-02-14T04:15:32.544Z,78.40
2023-02-14T04:16:32.519Z,78.31
2023-02-14T04:17:32.485Z,78.21
2023-02-14T04:18:32.459Z,78.21
2023-02-14T04:19:32.440Z,78.12
2023-02-14T04:20:32.423Z,78.59
2023-02-14T04:21:32.397Z,78.50
2023-02-14T04:22:32.378Z,78.50
2023-02-14T04:23:32.361Z,78.59
2023-02-14T04:27:39.815Z,78.21
2023-02-14T04:28:39.657Z,78.21
2023-02-14T04:29:39.678Z,78.59
2023-02-14T04:30:39.699Z,78.21
2023-02-14T04:31:39.929Z,78.87
2023-02-14T04:32:39.514Z,78.40
2023-02-14T04:33:39.510Z,78.68
2023-02-14T04:34:39.479Z,78.59
2023-02-14T04:35:39.459Z,78.59
2023-02-14T04:36:39.537Z,78.31
2023-02-14T04:37:39.412Z,78.21
2023-02-14T04:38:39.396Z,78.21
2023-02-14T04:39:39.463Z,78.78
2023-02-14T04:40:39.360Z,78.31
2023-02-14T04:41:39.336Z,78.21
2023-02-14T04:42:39.321Z,78.31
2023-02-14T04:43:39.309Z,78.44
2023-02-14T04:44:39.271Z,78.53
2023-02-14T04:45:39.265Z,78.63
2023-02-14T04:46:39.321Z,77.97
2023-02-14T04:47:39.226Z,78.34
2023-02-14T04:48:39.190Z,77.97
2023-02-14T06:06:20.365Z,76.95
2023-02-14T06:07:20.131Z,77.33
2023-02-14T06:09:25.959Z,77.33
2023-02-14T06:10:25.097Z,77.14
2023-02-14T06:12:33.182Z,77.33
2023-02-14T06:13:33.009Z,77.04
2023-02-14T06:15:39.051Z,77.33
2023-02-14T06:16:39.432Z,76.95
2023-02-14T06:17:39.121Z,76.86
2023-02-14T06:18:38.946Z,76.86
2023-02-14T06:19:38.988Z,76.76
2023-02-14T06:20:39.330Z,77.23
2023-02-14T06:21:38.885Z,77.33
2023-02-14T06:22:38.854Z,77.14
2023-02-14T06:23:38.837Z,77.33
2023-02-14T06:24:38.827Z,77.33
2023-02-14T06:25:38.796Z,77.23
2023-02-14T06:26:38.778Z,77.33
2023-02-14T06:27:38.757Z,77.42
2023-02-14T06:28:38.738Z,77.14
2023-02-14T06:29:38.715Z,77.33
2023-02-14T06:30:38.921Z,77.23
2023-02-14T06:31:38.841Z,77.33
2023-02-14T06:32:38.660Z,77.14
2023-02-14T06:33:38.665Z,77.14
2023-02-14T06:34:38.621Z,77.14
2023-02-14T06:35:38.598Z,77.23
2023-02-14T06:36:38.580Z,76.95
2023-02-14T06:37:38.580Z,77.04
2023-02-14T06:38:38.583Z,76.67
2023-02-14T06:39:38.522Z,76.95
2023-02-14T06:40:38.504Z,76.67
2023-02-14T06:41:38.491Z,76.86
2023-02-14T06:42:38.470Z,77.42
2023-02-14T06:43:38.444Z,77.14
2023-02-14T06:44:38.426Z,76.86
2023-02-14T06:45:38.406Z,77.14
2023-02-14T06:46:38.388Z,76.76
2023-02-14T06:47:38.370Z,76.95
2023-02-14T06:48:38.353Z,76.76
2023-02-14T06:49:38.334Z,76.57
2023-02-14T06:50:38.325Z,76.67
2023-02-14T06:51:38.294Z,76.48
2023-02-14T06:52:38.274Z,76.95
2023-02-14T06:53:38.267Z,76.86
2023-02-14T06:54:38.233Z,76.67
2023-02-14T06:55:38.225Z,76.67
2023-02-14T06:56:38.196Z,76.76
2023-02-14T06:57:38.174Z,76.86
2023-02-14T06:58:38.153Z,76.86
2023-02-14T06:59:38.132Z,76.67
2023-02-14T07:00:38.115Z,76.86
2023-02-14T07:01:38.138Z,76.86
2023-02-14T07:02:38.142Z,76.67
2023-02-14T07:03:38.065Z,76.67
2023-02-14T07:04:38.037Z,76.89
2023-02-14T07:05:38.027Z,76.70
2023-02-14T07:06:38.383Z,76.67
2023-02-14T07:07:37.983Z,76.51
2023-02-14T07:08:37.957Z,76.99
2023-02-14T07:09:37.974Z,76.89
2023-02-14T07:10:37.927Z,76.80
2023-02-14T07:11:37.897Z,76.61
2023-02-14T07:12:37.880Z,76.61
2023-02-14T07:13:37.884Z,76.80
2023-02-14T07:14:37.843Z,76.42
2023-02-14T07:15:37.838Z,76.61
2023-02-14T07:16:37.807Z,76.32
2023-02-14T07:17:37.787Z,76.14
2023-02-14T07:18:37.782Z,76.14
2023-02-14T07:19:37.768Z,76.46
2023-02-14T07:20:37.738Z,76.55
2023-02-14T07:21:37.710Z,75.79
2023-02-14T07:22:37.704Z,75.98
2023-02-14T07:23:37.674Z,75.76
2023-02-14T07:24:37.652Z,75.76
2023-02-14T07:25:37.640Z,76.42
2023-02-14T07:26:37.616Z,76.42
2023-02-14T07:27:37.601Z,76.32
2023-02-14T07:28:37.574Z,76.23
2023-02-14T07:29:37.577Z,76.51
2023-02-14T07:30:37.534Z,76.42
2023-02-14T07:31:37.613Z,76.04
2023-02-14T07:32:37.500Z,76.42
2023-02-14T07:33:37.481Z,76.27
2023-02-14T07:34:37.484Z,76.51
2023-02-14T07:35:37.441Z,76.04
2023-02-14T07:36:37.426Z,75.95
2023-02-14T07:37:37.406Z,75.95
2023-02-14T07:38:37.385Z,75.57
2023-02-14T07:39:37.367Z,76.42
2023-02-14T07:40:37.346Z,76.42
2023-02-14T07:41:37.332Z,76.23
2023-02-14T07:42:37.306Z,76.14
2023-02-14T07:43:37.287Z,76.14
2023-02-14T07:44:37.271Z,76.42
2023-02-14T07:45:37.252Z,75.95
2023-02-14T07:46:37.339Z,75.60
2023-02-14T07:47:37.213Z,75.89
2023-02-14T07:48:37.196Z,75.89
2023-02-14T07:49:37.180Z,76.08
2023-02-14T07:50:37.156Z,76.17
2023-02-14T07:51:37.150Z,75.89
2023-02-14T07:52:37.119Z,76.17
2023-02-14T07:53:37.096Z,75.79
2023-02-14T07:54:37.080Z,75.79
2023-02-14T07:55:37.056Z,75.04
2023-02-14T07:56:37.039Z,75.51
2023-02-14T07:57:37.032Z,75.42
2023-02-14T07:58:37.005Z,75.51
2023-02-14T07:59:36.985Z,75.42
2023-02-14T08:00:36.964Z,75.79
2023-02-14T08:01:36.978Z,75.42
2023-02-14T08:02:36.929Z,75.70
2023-02-14T08:03:36.907Z,75.70
2023-02-14T08:04:36.916Z,75.89
2023-02-14T08:05:36.868Z,75.51
2023-02-14T08:06:36.851Z,75.79
2023-02-14T08:07:36.828Z,75.79
2023-02-14T08:08:36.815Z,75.89
2023-02-14T08:09:36.814Z,75.79
2023-02-14T08:10:36.772Z,75.79
2023-02-14T08:11:36.764Z,75.79
2023-02-14T08:12:36.731Z,75.60
2023-02-14T08:13:36.721Z,75.60
2023-02-14T08:14:36.692Z,75.51
2023-02-14T08:15:36.675Z,75.74
2023-02-14T08:16:36.655Z,75.36
2023-02-14T08:17:36.746Z,75.45
2023-02-14T08:18:36.636Z,74.88
2023-02-14T08:19:36.596Z,75.17
2023-02-14T08:20:36.576Z,74.60
2023-02-14T08:21:36.561Z,74.64
2023-02-14T08:22:36.540Z,74.73
2023-02-14T08:23:36.520Z,74.54
2023-02-14T08:24:36.501Z,73.88
2023-02-14T08:25:36.483Z,74.07
2023-02-14T08:26:36.466Z,74.07
2023-02-14T08:27:36.452Z,74.26
2023-02-14T08:28:36.444Z,73.79
2023-02-14T08:29:36.430Z,74.22
2023-02-14T08:30:36.436Z,74.51
2023-02-14T08:31:36.850Z,74.60
2023-02-14T08:32:36.447Z,74.64
2023-02-14T08:33:36.339Z,74.64
2023-02-14T08:34:36.315Z,74.45
2023-02-14T08:35:36.301Z,74.35
2023-02-14T08:36:36.321Z,74.35
2023-02-14T08:37:36.258Z,74.45
2023-02-14T08:38:36.251Z,74.07
2023-02-14T08:39:36.223Z,74.16
2023-02-14T08:40:36.207Z,74.16
2023-02-14T08:41:36.188Z,74.07
2023-02-14T08:42:36.183Z,74.16
2023-02-14T08:43:36.174Z,73.82
2023-02-14T08:44:36.137Z,73.72
2023-02-14T08:45:36.141Z,73.82
2023-02-14T08:46:36.137Z,73.92
2023-02-14T08:47:36.088Z,73.48
2023-02-14T08:48:39.132Z,73.48
2023-02-14T08:49:36.052Z,72.95
2023-02-14T08:50:36.047Z,72.85
2023-02-14T08:51:36.002Z,72.56
2023-02-14T08:52:36.013Z,72.28
2023-02-14T08:53:35.966Z,72.38
2023-02-14T08:54:35.956Z,72.00
2023-02-14T08:55:35.945Z,71.90
2023-02-14T08:56:35.917Z,71.14
2023-02-14T08:57:35.895Z,71.14
2023-02-14T08:58:35.879Z,71.27
2023-02-14T08:59:35.889Z,71.66
2023-02-14T09:00:35.878Z,71.33
2023-02-14T09:01:35.875Z,71.33
2023-02-14T09:02:35.842Z,71.04
2023-02-14T09:03:38.273Z,71.18
2023-02-14T09:04:35.886Z,71.37
2023-02-14T09:05:35.765Z,71.46
2023-02-14T09:06:35.732Z,71.37
2023-02-14T09:07:35.721Z,71.46
2023-02-14T09:08:35.698Z,71.27
2023-02-14T09:09:35.709Z,70.70
2023-02-14T09:10:35.664Z,71.27
2023-02-14T09:11:35.653Z,71.27
2023-02-14T09:12:35.630Z,71.08
2023-02-14T09:13:35.642Z,71.71
2023-02-14T09:14:35.595Z,71.71
2023-02-14T09:15:35.576Z,72.09
2023-02-14T09:16:35.621Z,72.41
2023-02-14T09:17:35.541Z,71.94
2023-02-14T09:18:35.524Z,71.75
2023-02-14T09:19:35.543Z,71.88
2023-02-14T09:20:35.526Z,71.34
2023-02-14T09:21:35.502Z,70.20
2023-02-14T09:22:35.447Z,69.73
2023-02-14T09:23:35.434Z,69.60
2023-02-14T09:24:35.420Z,69.88
2023-02-14T09:25:35.961Z,70.17
2023-02-14T09:26:35.387Z,70.45
2023-02-14T09:27:35.365Z,69.69
2023-02-14T09:28:35.346Z,69.69
2023-02-14T09:29:35.331Z,70.30
2023-02-14T09:30:35.413Z,70.20
2023-02-14T09:31:35.355Z,69.67
2023-02-14T09:32:35.284Z,69.00
2023-02-14T09:33:35.267Z,69.10
2023-02-14T09:34:35.245Z,69.19
2023-02-14T09:35:35.230Z,68.81
2023-02-14T09:36:35.219Z,69.00
2023-02-14T09:37:35.193Z,69.19
2023-02-14T09:38:35.176Z,69.29
2023-02-14T09:39:35.166Z,69.10
2023-02-14T09:40:35.140Z,69.48
2023-02-14T09:41:35.125Z,69.19
2023-02-14T09:42:35.108Z,69.63
2023-02-14T09:43:35.099Z,70.01
2023-02-14T09:44:35.077Z,69.92
2023-02-14T09:45:35.132Z,70.77
2023-02-14T09:46:35.046Z,70.97
2023-02-14T09:47:35.035Z,71.00
2023-02-14T09:48:35.009Z,70.52
2023-02-14T09:49:35.140Z,70.43
2023-02-14T09:50:34.987Z,69.95
2023-02-14T09:51:34.968Z,69.57
2023-02-14T09:52:34.947Z,69.67
2023-02-14T09:53:34.934Z,69.57
2023-02-14T09:54:34.923Z,69.85
2023-02-14T09:55:34.904Z,69.51
2023-02-14T09:56:45.996Z,69.60
2023-02-14T09:57:34.860Z,69.45
2023-02-14T09:58:34.858Z,68.59
2023-02-14T09:59:34.873Z,68.84
2023-02-14T10:00:34.809Z,68.75
2023-02-14T10:01:34.931Z,69.04
2023-02-14T10:02:34.888Z,69.42
2023-02-14T10:03:34.764Z,69.23
2023-02-14T10:04:34.752Z,69.51
2023-02-14T10:05:34.733Z,69.26
2023-02-14T10:06:34.707Z,69.26
2023-02-14T10:07:34.703Z,69.45
2023-02-14T10:08:34.682Z,68.72
2023-02-14T10:09:34.664Z,67.96
2023-02-14T10:10:34.655Z,67.96
2023-02-14T10:11:34.629Z,68.24
2023-02-14T10:12:34.617Z,68.24
2023-02-14T10:13:34.597Z,68.15
2023-02-14T10:14:34.588Z,67.96
2023-02-14T10:15:34.560Z,68.05
2023-02-14T10:16:34.576Z,68.09
2023-02-14T10:17:34.549Z,67.80
2023-02-14T10:18:34.516Z,68.22
2023-02-14T10:19:34.507Z,67.07
2023-02-14T10:20:34.488Z,66.98
2023-02-14T10:21:34.498Z,66.88
2023-02-14T10:22:34.450Z,67.55
2023-02-14T10:23:34.438Z,67.77
2023-02-14T10:24:34.429Z,68.29
2023-02-14T10:25:34.418Z,67.94
2023-02-14T10:26:34.396Z,67.88
2023-02-14T10:27:34.379Z,67.34
2023-02-14T10:28:34.364Z,67.18
2023-02-14T10:29:34.349Z,66.13
2023-02-14T10:30:34.427Z,65.94
2023-02-14T10:31:34.473Z,65.49
2023-02-14T10:32:34.302Z,65.20
2023-02-14T10:33:34.318Z,64.95
2023-02-14T10:34:34.294Z,65.78
2023-02-14T10:35:34.262Z,65.08
2023-02-14T10:36:34.245Z,63.54
2023-02-14T10:37:34.237Z,63.06
2023-02-14T10:38:34.223Z,62.96
2023-02-14T10:39:34.212Z,62.58
2023-02-14T10:40:34.196Z,62.19
2023-02-14T10:41:34.182Z,62.16
2023-02-14T10:42:34.166Z,62.74
2023-02-14T10:43:34.158Z,62.65
2023-02-14T10:44:34.139Z,62.26
2023-02-14T10:45:34.178Z,62.55
2023-02-14T10:46:34.130Z,62.65
2023-02-14T10:47:34.123Z,62.13
2023-02-14T10:48:34.088Z,62.62
2023-02-14T10:49:34.076Z,63.45
2023-02-14T10:50:34.061Z,63.96
2023-02-14T10:51:34.300Z,64.05
2023-02-14T10:52:34.035Z,64.37
2023-02-14T10:53:34.026Z,65.30
2023-02-14T10:54:34.019Z,65.20
2023-02-14T10:55:34.018Z,63.89
2023-02-14T10:56:34.000Z,61.54
2023-02-14T10:57:33.982Z,57.36
2023-02-14T10:58:33.964Z,53.83
2023-02-14T10:59:33.965Z,51.17
2023-02-14T11:00:33.948Z,51.43
2023-02-14T11:01:33.976Z,52.57
2023-02-14T11:02:33.927Z,54.00
2023-02-14T11:03:33.969Z,55.99
2023-02-14T11:04:33.912Z,57.34
2023-02-14T11:05:33.902Z,57.83
2023-02-14T11:06:33.898Z,58.04
2023-02-14T11:07:33.898Z,59.36
2023-02-14T11:08:33.905Z,60.04
2023-02-14T11:09:33.879Z,61.40
2023-02-14T11:10:33.869Z,61.98
2023-02-14T11:11:33.858Z,61.79
2023-02-14T11:12:33.856Z,62.49
2023-02-14T11:13:33.851Z,61.17
2023-02-14T11:14:33.844Z,59.87
2023-02-14T11:15:33.859Z,57.98
2023-02-14T11:16:33.884Z,54.38
2023-02-14T11:17:33.829Z,52.94
2023-02-14T11:18:33.818Z,52.43
2023-02-14T11:19:36.096Z,54.22
2023-02-14T11:20:33.812Z,55.65
2023-02-14T11:21:33.800Z,57.15
2023-02-14T11:22:33.797Z,58.06
2023-02-14T11:23:33.797Z,59.59
2023-02-14T11:24:33.819Z,60.14
2023-02-14T11:25:33.787Z,60.40
2023-02-14T11:26:33.780Z,61.36
2023-02-14T11:27:33.793Z,61.95
2023-02-14T11:28:33.766Z,62.14
2023-02-14T11:29:33.767Z,62.92
2023-02-14T11:30:33.788Z,62.59
2023-02-14T11:31:33.946Z,62.07
2023-02-14T11:32:33.769Z,59.77
2023-02-14T11:33:33.744Z,56.61
2023-02-14T11:34:33.746Z,52.31
2023-02-14T11:35:33.750Z,50.31
2023-02-14T11:36:33.746Z,50.26
2023-02-14T11:37:33.729Z,51.29
2023-02-14T11:38:33.726Z,52.69
2023-02-14T11:39:33.721Z,54.66
2023-02-14T11:40:33.725Z,56.47
2023-02-14T11:41:33.722Z,56.81
2023-02-14T11:42:33.714Z,57.91
2023-02-14T11:43:33.710Z,59.14
2023-02-14T11:44:33.709Z,59.91
2023-02-14T11:45:33.701Z,59.89
2023-02-14T11:46:36.146Z,61.50
2023-02-14T11:47:33.703Z,61.98
2023-02-14T11:48:38.986Z,61.24
2023-02-14T11:49:33.679Z,59.84
2023-02-14T11:50:33.685Z,57.51
2023-02-14T11:51:33.684Z,54.20
2023-02-14T11:52:33.673Z,51.92
2023-02-14T11:53:33.662Z,51.09
2023-02-14T11:54:33.658Z,52.30
2023-02-14T11:55:33.662Z,53.44
2023-02-14T11:56:33.652Z,54.58
2023-02-14T11:57:33.648Z,55.49
2023-02-14T11:58:33.641Z,56.62
2023-02-14T11:59:33.648Z,57.73
2023-02-14T12:00:33.645Z,58.09
2023-02-14T12:01:33.626Z,58.45
2023-02-14T12:02:33.657Z,59.58
2023-02-14T12:03:33.926Z,59.93
2023-02-14T12:04:38.216Z,60.51
2023-02-14T12:05:33.610Z,60.86
2023-02-14T12:06:33.608Z,59.34
2023-02-14T12:07:33.606Z,57.69
2023-02-14T12:08:33.609Z,55.58
2023-02-14T12:09:33.601Z,53.87
2023-02-14T12:10:33.589Z,53.67
2023-02-14T12:11:33.578Z,54.03
2023-02-14T12:12:33.574Z,54.88
2023-02-14T12:13:33.584Z,55.31
2023-02-14T12:14:33.573Z,56.90
2023-02-14T12:15:33.587Z,57.54
2023-02-14T12:16:33.558Z,58.03
2023-02-14T12:17:33.556Z,58.29
2023-02-14T12:18:33.545Z,58.29
2023-02-14T12:19:33.551Z,58.84
2023-02-14T12:20:33.533Z,58.94
2023-02-14T12:21:33.523Z,58.94
2023-02-14T12:22:33.517Z,58.10
2023-02-14T12:23:33.514Z,57.74
2023-02-14T12:24:33.508Z,56.48
2023-02-14T12:25:33.502Z,55.62
2023-02-14T12:26:33.490Z,55.68
2023-02-14T12:27:35.560Z,55.63
2023-02-14T12:28:33.480Z,56.85
2023-02-14T12:29:33.492Z,57.47
2023-02-14T12:30:33.458Z,57.83
2023-02-14T12:31:33.645Z,58.28
2023-02-14T12:32:33.445Z,58.83
2023-02-14T12:33:33.430Z,58.89
2023-02-14T12:34:33.440Z,59.83
2023-02-14T12:35:33.414Z,60.28
2023-02-14T12:36:33.404Z,61.30
2023-02-14T12:37:33.394Z,61.49
2023-02-14T12:38:33.386Z,61.52
2023-02-14T12:39:33.379Z,60.38
2023-02-14T12:40:33.367Z,60.40
2023-02-14T12:41:33.363Z,59.64
2023-02-14T12:42:33.350Z,59.34
2023-02-14T12:43:33.341Z,59.16
2023-02-14T12:44:33.335Z,59.41
2023-02-14T12:45:33.318Z,59.09
2023-02-14T12:46:33.336Z,59.67
2023-02-14T12:47:33.297Z,59.74
2023-02-14T12:48:33.296Z,59.45
2023-02-14T12:49:33.280Z,60.09
2023-02-14T12:50:33.270Z,60.67
2023-02-14T12:51:33.264Z,60.73
2023-02-14T12:52:33.255Z,60.67
2023-02-14T12:53:33.242Z,60.09
2023-02-14T12:54:33.229Z,60.28
2023-02-14T12:55:33.220Z,60.19
2023-02-14T12:56:33.213Z,59.42
2023-02-14T12:57:33.207Z,59.68
2023-02-14T12:58:33.190Z,59.39
2023-02-14T12:59:33.185Z,59.30
2023-02-14T13:00:33.187Z,59.45
2023-02-14T13:01:39.080Z,59.94
2023-02-14T13:02:33.260Z,60.22
2023-02-14T13:03:33.142Z,60.32
2023-02-14T13:04:33.133Z,60.22
2023-02-14T13:05:33.112Z,59.94
2023-02-14T13:06:33.100Z,60.22
2023-02-14T13:07:33.097Z,60.32
2023-02-14T13:08:33.101Z,59.94
2023-02-14T13:09:33.584Z,59.75
2023-02-14T13:10:33.057Z,59.27
2023-02-14T13:11:33.044Z,59.43
2023-02-14T13:12:33.061Z,59.30
2023-02-14T13:13:33.300Z,59.78
2023-02-14T13:14:33.008Z,59.88
2023-02-14T13:15:33.009Z,60.26
2023-02-14T13:16:33.522Z,59.88
2023-02-14T13:17:32.972Z,60.06
2023-02-14T13:18:32.963Z,59.78
2023-02-14T13:19:33.210Z,59.75
2023-02-14T13:20:32.945Z,59.75
2023-02-14T13:21:32.926Z,59.94
2023-02-14T13:22:32.912Z,60.33
2023-02-14T13:23:32.899Z,60.33
2023-02-14T13:24:32.898Z,60.13
2023-02-14T13:25:32.883Z,60.39
2023-02-14T13:26:32.872Z,60.49
2023-02-14T13:27:32.871Z,60.55
2023-02-14T13:28:32.836Z,60.84
2023-02-14T13:29:32.823Z,60.46
2023-02-14T13:30:32.876Z,60.61
2023-02-14T13:31:32.976Z,60.52
2023-02-14T13:32:32.791Z,61.00
2023-02-14T13:33:34.971Z,60.52
2023-02-14T13:34:32.780Z,60.68
2023-02-14T13:35:32.741Z,60.68
2023-02-14T13:36:32.739Z,60.78
2023-02-14T13:37:32.716Z,60.71
2023-02-14T13:38:32.707Z,60.39
2023-02-14T13:39:36.135Z,60.30
2023-02-14T13:40:32.679Z,60.58
2023-02-14T13:41:32.663Z,60.78
2023-02-14T13:42:32.651Z,60.49
2023-02-14T13:43:32.637Z,60.97
2023-02-14T13:44:32.623Z,60.97
2023-02-14T13:45:32.628Z,60.68
2023-02-14T13:46:32.687Z,60.39
2023-02-14T13:47:32.580Z,60.75
2023-02-14T13:48:33.037Z,60.55
2023-02-14T13:49:32.769Z,60.75
2023-02-14T13:50:32.539Z,60.33
2023-02-14T13:51:32.523Z,60.81
2023-02-14T13:52:32.510Z,60.81
2023-02-14T13:53:32.505Z,61.19
2023-02-14T13:54:32.691Z,61.35
2023-02-14T13:55:32.468Z,61.19
2023-02-14T13:56:32.464Z,61.19
2023-02-14T13:57:32.440Z,61.25
2023-02-14T13:58:32.422Z,61.25
2023-02-14T13:59:32.420Z,61.16
2023-02-14T14:00:32.462Z,61.16
2023-02-14T14:01:32.380Z,61.16
2023-02-14T14:02:32.885Z,60.97
2023-02-14T14:03:32.624Z,61.04
2023-02-14T14:04:32.335Z,61.13
2023-02-14T14:05:32.318Z,61.42
2023-02-14T14:06:32.302Z,61.80
2023-02-14T14:07:32.287Z,61.51
2023-02-14T14:08:32.275Z,61.42
2023-02-14T14:09:32.259Z,61.70
2023-02-14T14:10:32.244Z,61.70
2023-02-14T14:11:32.227Z,61.51
2023-02-14T14:12:32.211Z,61.51
2023-02-14T14:13:32.201Z,61.80
2023-02-14T14:14:32.189Z,61.80
2023-02-14T14:15:32.188Z,61.86